createdAt,value
2017-09-11T00:01:33.799Z,14.40
2017-09-11T00:04:35.105Z,14.40
2017-09-11T00:07:36.370Z,14.40
2017-09-11T00:10:38.382Z,14.50
2017-09-11T00:13:39.637Z,14.50
2017-09-11T00:16:40.922Z,14.50
2017-09-11T00:19:42.192Z,14.50
2017-09-11T00:22:44.198Z,14.60
2017-09-11T00:25:45.469Z,14.60
2017-09-11T00:28:46.750Z,14.60
2017-09-11T00:31:48.869Z,14.50
2017-09-11T00:34:50.186Z,14.50
2017-09-11T00:37:51.680Z,14.50
2017-09-11T00:40:52.950Z,14.50
2017-09-11T00:43:54.281Z,14.60
2017-09-11T00:46:55.572Z,14.50
2017-09-11T00:49:57.638Z,14.50
2017-09-11T00:52:59.650Z,14.50
2017-09-11T00:56:00.963Z,14.50
2017-09-11T00:59:02.419Z,14.60
2017-09-11T01:02:03.674Z,14.50
2017-09-11T01:05:04.970Z,14.50
2017-09-11T01:08:06.258Z,14.50
2017-09-11T01:11:07.566Z,14.40
2017-09-11T01:14:08.830Z,14.50
2017-09-11T01:17:10.098Z,14.40
2017-09-11T01:20:11.421Z,14.40
2017-09-11T01:23:12.758Z,14.40
2017-09-11T01:26:14.101Z,14.20
2017-09-11T01:29:15.406Z,14.10
2017-09-11T01:32:16.725Z,14.10
2017-09-11T01:35:17.958Z,14.00
2017-09-11T01:38:19.241Z,14.00
2017-09-11T01:41:20.522Z,14.00
2017-09-11T01:44:21.802Z,14.00
2017-09-11T01:47:23.838Z,13.90
2017-09-11T01:50:25.152Z,13.80
2017-09-11T01:53:26.625Z,13.90
2017-09-11T01:56:27.910Z,14.10
2017-09-11T01:59:29.966Z,14.00
2017-09-11T02:02:31.194Z,14.00
2017-09-11T02:05:32.466Z,14.00
2017-09-11T02:08:33.726Z,13.90
2017-09-11T02:11:35.774Z,14.00
2017-09-11T02:14:36.995Z,14.00
2017-09-11T02:17:38.250Z,14.00
2017-09-11T02:20:39.558Z,14.10
2017-09-11T02:23:40.877Z,14.10
2017-09-11T02:26:42.312Z,14.10
2017-09-11T02:29:43.579Z,14.10
2017-09-11T02:32:45.673Z,14.10
2017-09-11T02:35:46.985Z,14.10
2017-09-11T02:38:48.246Z,14.10
2017-09-11T02:41:50.262Z,14.20
2017-09-11T02:44:51.554Z,14.20
2017-09-11T02:47:52.826Z,14.20
2017-09-11T02:50:54.827Z,14.30
2017-09-11T02:53:56.481Z,14.30
2017-09-11T02:56:57.746Z,14.30
2017-09-11T02:59:59.222Z,14.30
2017-09-11T03:03:00.494Z,14.40
2017-09-11T03:06:02.522Z,14.40
2017-09-11T03:09:04.562Z,14.40
2017-09-11T03:12:05.850Z,14.40
2017-09-11T03:15:07.434Z,14.40
2017-09-11T03:18:09.480Z,14.30
2017-09-11T03:21:10.782Z,14.30
2017-09-11T03:24:12.066Z,14.30
2017-09-11T03:27:13.359Z,14.30
2017-09-11T03:30:14.588Z,14.30
2017-09-11T03:33:16.610Z,14.20
2017-09-11T03:36:17.867Z,14.20
2017-09-11T03:39:19.213Z,14.10
2017-09-11T03:42:20.473Z,14.10
2017-09-11T03:45:21.754Z,14.10
2017-09-11T03:48:23.150Z,14.10
2017-09-11T03:51:24.382Z,14.10
2017-09-11T03:54:25.906Z,14.20
2017-09-11T03:57:27.883Z,14.20
2017-09-11T04:00:29.174Z,14.10
2017-09-11T04:03:30.465Z,14.00
2017-09-11T04:06:31.820Z,14.00
2017-09-11T04:09:33.066Z,14.00
2017-09-11T04:12:34.374Z,13.90
2017-09-11T04:15:35.634Z,14.00
2017-09-11T04:18:36.908Z,14.00
2017-09-11T04:21:38.245Z,13.80
2017-09-11T04:24:40.230Z,13.90
2017-09-11T04:27:41.500Z,13.90
2017-09-11T04:30:42.738Z,14.00
2017-09-11T04:33:43.995Z,14.00
2017-09-11T04:36:45.298Z,14.00
2017-09-11T04:39:47.325Z,14.00
2017-09-11T04:42:48.642Z,14.00
2017-09-11T04:45:49.962Z,14.00
2017-09-11T04:48:52.029Z,14.00
2017-09-11T04:51:54.003Z,14.00
2017-09-11T04:54:56.022Z,14.00
2017-09-11T04:57:57.273Z,14.00
2017-09-11T05:00:58.598Z,13.90
2017-09-11T05:03:59.854Z,13.90
2017-09-11T05:07:01.213Z,14.00
2017-09-11T05:10:02.655Z,13.90
2017-09-11T05:13:03.886Z,13.90
2017-09-11T05:16:05.357Z,13.90
2017-09-11T05:19:06.614Z,13.90
2017-09-11T05:22:07.882Z,13.90
2017-09-11T05:25:09.130Z,14.00
2017-09-11T05:28:10.403Z,13.90
2017-09-11T05:31:12.400Z,14.00
2017-09-11T05:34:13.711Z,14.00
2017-09-11T05:37:14.992Z,14.10
2017-09-11T05:40:16.301Z,14.10
2017-09-11T05:43:17.607Z,14.00
2017-09-11T05:46:18.861Z,13.90
2017-09-11T05:49:20.107Z,13.90
2017-09-11T05:52:21.383Z,13.90
2017-09-11T05:55:22.902Z,14.00
2017-09-11T05:58:24.174Z,14.00
2017-09-11T06:01:25.502Z,14.00
2017-09-11T06:04:26.770Z,14.00
2017-09-11T06:07:28.030Z,14.00
2017-09-11T06:10:29.296Z,14.00
2017-09-11T06:13:30.602Z,14.00
2017-09-11T06:16:31.898Z,14.00
2017-09-11T06:19:33.170Z,14.10
2017-09-11T06:22:34.439Z,14.10
2017-09-11T06:25:35.739Z,14.20
2017-09-11T06:28:37.001Z,14.10
2017-09-11T06:31:39.066Z,14.10
2017-09-11T06:34:41.083Z,14.20
2017-09-11T06:37:42.698Z,14.10
2017-09-11T06:40:44.671Z,14.10
2017-09-11T06:43:45.932Z,14.10
2017-09-11T06:46:47.182Z,14.10
2017-09-11T06:49:48.498Z,14.10
2017-09-11T06:52:50.515Z,14.10
2017-09-11T06:55:51.782Z,14.10
2017-09-11T06:58:53.107Z,14.10
2017-09-11T07:01:55.146Z,14.10
2017-09-11T07:04:56.414Z,14.10
2017-09-11T07:07:58.434Z,14.20
2017-09-11T07:10:59.714Z,14.20
2017-09-11T07:14:00.946Z,14.30
2017-09-11T07:17:02.235Z,14.30
2017-09-11T07:20:04.258Z,14.30
2017-09-11T07:23:05.519Z,14.30
2017-09-11T07:26:06.930Z,14.30
2017-09-11T07:29:08.209Z,14.20
2017-09-11T07:32:09.477Z,14.30
2017-09-11T07:35:10.745Z,14.20
2017-09-11T07:38:12.802Z,14.10
2017-09-11T07:41:14.787Z,14.20
2017-09-11T07:44:16.071Z,14.20
2017-09-11T07:47:17.353Z,14.30
2017-09-11T07:50:18.598Z,14.40
2017-09-11T07:53:20.002Z,14.40
2017-09-11T07:56:21.246Z,14.60
2017-09-11T07:59:22.569Z,14.60
2017-09-11T08:02:24.551Z,14.70
2017-09-11T08:05:25.810Z,14.70
2017-09-11T08:08:27.133Z,14.80
2017-09-11T08:11:28.419Z,14.60
2017-09-11T08:14:29.657Z,14.60
2017-09-11T08:17:30.926Z,14.60
2017-09-11T08:20:33.122Z,14.60
2017-09-11T08:23:34.370Z,14.10
2017-09-11T08:26:35.688Z,14.70
2017-09-11T08:29:37.654Z,14.80
2017-09-11T08:32:39.698Z,14.80
2017-09-11T08:35:41.013Z,14.80
2017-09-11T08:38:42.294Z,14.90
2017-09-11T08:41:43.566Z,15.00
2017-09-11T08:44:45.613Z,15.00
2017-09-11T08:47:46.926Z,14.90
2017-09-11T08:50:48.274Z,15.10
2017-09-11T08:53:49.535Z,14.70
2017-09-11T08:56:50.821Z,15.20
2017-09-11T08:59:52.238Z,15.10
2017-09-11T09:02:53.474Z,15.10
2017-09-11T09:05:54.879Z,15.20
2017-09-11T09:08:56.884Z,15.20
2017-09-11T09:11:58.146Z,15.10
2017-09-11T09:14:59.429Z,15.20
2017-09-11T09:18:00.703Z,14.80
2017-09-11T09:21:01.994Z,15.40
2017-09-11T09:24:03.302Z,15.20
2017-09-11T09:27:04.605Z,15.20
2017-09-11T09:30:05.849Z,15.20
2017-09-11T09:33:07.165Z,15.20
2017-09-11T09:36:08.423Z,15.30
2017-09-11T09:39:09.698Z,15.30
2017-09-11T09:42:11.198Z,15.50
2017-09-11T09:45:13.210Z,15.90
2017-09-11T09:48:14.490Z,15.90
2017-09-11T09:51:15.727Z,15.90
2017-09-11T09:54:17.006Z,16.00
2017-09-11T09:57:18.271Z,16.20
2017-09-11T10:00:20.310Z,16.30
2017-09-11T10:03:21.550Z,16.20
2017-09-11T10:06:22.827Z,16.30
2017-09-11T10:09:24.830Z,15.90
2017-09-11T10:12:26.077Z,15.90
2017-09-11T10:15:27.633Z,15.80
2017-09-11T10:18:28.890Z,15.70
2017-09-11T10:21:30.177Z,15.40
2017-09-11T10:24:31.426Z,15.20
2017-09-11T10:27:32.695Z,15.20
2017-09-11T10:30:34.715Z,15.60
2017-09-11T10:33:36.014Z,15.60
2017-09-11T10:36:38.007Z,16.20
2017-09-11T10:39:39.310Z,16.20
2017-09-11T10:42:40.565Z,16.20
2017-09-11T10:45:41.861Z,16.10
2017-09-11T10:48:43.134Z,16.00
2017-09-11T10:51:44.441Z,16.00
2017-09-11T10:54:45.685Z,15.80
2017-09-11T10:57:46.994Z,15.70
2017-09-11T11:00:48.302Z,15.50
2017-09-11T11:03:50.326Z,15.30
2017-09-11T11:06:51.713Z,15.30
2017-09-11T11:09:53.706Z,15.20
2017-09-11T11:12:55.005Z,15.20
2017-09-11T11:15:56.270Z,15.20
2017-09-11T11:18:57.558Z,15.20
2017-09-11T11:21:58.822Z,15.20
2017-09-11T11:25:00.114Z,15.40
2017-09-11T11:28:01.366Z,15.50
2017-09-11T11:31:02.634Z,15.60
2017-09-11T11:34:04.630Z,15.70
2017-09-11T11:37:05.909Z,15.70
2017-09-11T11:40:07.182Z,15.80
2017-09-11T11:43:09.195Z,15.70
2017-09-11T11:46:10.493Z,15.70
2017-09-11T11:49:12.481Z,15.70
2017-09-11T11:52:13.778Z,15.70
2017-09-11T11:55:15.027Z,16.10
2017-09-11T11:58:16.306Z,16.50
2017-09-11T12:01:18.327Z,16.70
2017-09-11T12:04:19.621Z,16.70
2017-09-11T12:07:20.961Z,16.70
2017-09-11T12:10:22.270Z,16.50
2017-09-11T12:13:23.532Z,16.30
2017-09-11T12:16:24.844Z,16.20
2017-09-11T12:19:26.107Z,16.20
2017-09-11T12:22:27.370Z,16.50
2017-09-11T12:25:28.658Z,16.70
2017-09-11T12:28:29.907Z,16.70
2017-09-11T12:31:31.175Z,16.50
2017-09-11T12:34:33.158Z,16.50
2017-09-11T12:37:34.479Z,16.50
2017-09-11T12:40:36.485Z,16.50
2017-09-11T12:43:37.766Z,16.50
2017-09-11T12:46:39.021Z,16.60
2017-09-11T12:49:40.290Z,16.90
2017-09-11T12:52:42.291Z,17.60
2017-09-11T12:55:43.577Z,17.60
2017-09-11T12:58:45.274Z,18.30
2017-09-11T13:01:47.293Z,18.60
2017-09-11T13:04:48.593Z,18.60
2017-09-11T13:07:49.870Z,18.70
2017-09-11T13:10:51.269Z,18.60
2017-09-11T13:13:52.498Z,18.50
2017-09-11T13:16:53.786Z,18.10
2017-09-11T13:19:55.807Z,17.50
2017-09-11T13:22:57.123Z,17.50
2017-09-11T13:25:58.390Z,17.30
2017-09-11T13:28:59.651Z,17.90
2017-09-11T13:32:01.050Z,18.10
2017-09-11T13:35:02.299Z,17.80
2017-09-11T13:38:03.713Z,17.50
2017-09-11T13:41:04.982Z,17.30
2017-09-11T13:44:07.002Z,17.80
2017-09-11T13:47:08.303Z,17.80
2017-09-11T13:50:10.357Z,17.70
2017-09-11T13:53:11.598Z,17.10
2017-09-11T13:56:12.871Z,17.90
2017-09-11T13:59:15.001Z,17.60
2017-09-11T14:02:16.270Z,17.10
2017-09-11T14:05:17.702Z,17.40
2017-09-11T14:08:19.774Z,17.20
2017-09-11T14:11:21.066Z,17.20
2017-09-11T14:14:22.314Z,17.20
2017-09-11T14:17:23.593Z,17.30
2017-09-11T14:20:24.854Z,17.60
2017-09-11T14:23:26.177Z,18.00
2017-09-11T14:26:27.547Z,18.50
2017-09-11T14:29:28.831Z,18.50
2017-09-11T14:32:30.214Z,18.20
2017-09-11T14:35:31.473Z,17.90
2017-09-11T14:38:32.778Z,17.60
2017-09-11T14:41:34.047Z,17.40
2017-09-11T14:44:36.078Z,17.20
2017-09-11T14:47:37.346Z,17.20
2017-09-11T14:50:39.390Z,17.30
2017-09-11T14:53:40.922Z,17.30
2017-09-11T14:56:42.167Z,17.40
2017-09-11T14:59:43.686Z,17.90
2017-09-11T15:02:44.987Z,18.60
2017-09-11T15:05:46.298Z,18.60
2017-09-11T15:08:47.558Z,18.00
2017-09-11T15:11:48.838Z,18.50
2017-09-11T15:14:50.104Z,18.30
2017-09-11T15:17:51.434Z,17.20
2017-09-11T15:20:53.066Z,17.60
2017-09-11T15:23:54.353Z,17.30
2017-09-11T15:26:55.665Z,17.40
2017-09-11T15:29:56.957Z,17.30
2017-09-11T15:32:59.166Z,17.20
2017-09-11T15:36:00.406Z,17.30
2017-09-11T15:39:01.726Z,17.20
2017-09-11T15:42:03.731Z,17.20
2017-09-11T15:45:04.982Z,17.20
2017-09-11T15:48:06.250Z,17.10
2017-09-11T15:51:08.190Z,17.10
2017-09-11T15:54:09.474Z,17.00
2017-09-11T15:57:10.746Z,17.10
2017-09-11T16:00:11.994Z,17.10
2017-09-11T16:03:14.082Z,16.90
2017-09-11T16:06:15.361Z,16.90
2017-09-11T16:09:16.642Z,16.90
2017-09-11T16:12:17.964Z,16.80
2017-09-11T16:15:19.233Z,16.90
2017-09-11T16:18:20.514Z,16.80
2017-09-11T16:21:22.535Z,16.80
2017-09-11T16:24:23.831Z,16.80
2017-09-11T16:27:25.847Z,16.60
2017-09-11T16:30:27.916Z,16.60
2017-09-11T16:33:29.194Z,16.60
2017-09-11T16:36:30.426Z,16.60
2017-09-11T16:39:31.846Z,16.60
2017-09-11T16:42:33.122Z,16.50
2017-09-11T16:45:34.402Z,16.60
2017-09-11T16:48:36.410Z,16.50
2017-09-11T16:51:37.705Z,16.50
2017-09-11T16:54:38.978Z,16.40
2017-09-11T16:57:41.013Z,16.30
2017-09-11T17:00:42.258Z,16.30
2017-09-11T17:03:43.578Z,16.20
2017-09-11T17:06:44.945Z,16.20
2017-09-11T17:09:46.226Z,16.20
2017-09-11T17:12:48.270Z,16.20
2017-09-11T17:15:49.556Z,16.10
2017-09-11T17:18:51.606Z,16.10
2017-09-11T17:21:53.627Z,16.20
2017-09-11T17:24:54.947Z,16.10
2017-09-11T17:27:56.203Z,16.00
2017-09-11T17:30:57.493Z,16.10
2017-09-11T17:33:58.794Z,16.10
2017-09-11T17:37:00.105Z,16.00
2017-09-11T17:40:01.450Z,15.90
2017-09-11T17:43:02.742Z,15.90
2017-09-11T17:46:04.069Z,15.90
2017-09-11T17:49:06.087Z,15.90
2017-09-11T17:52:07.386Z,15.90
2017-09-11T17:55:09.406Z,15.90
2017-09-11T17:58:11.458Z,15.90
2017-09-11T18:01:12.894Z,15.90
2017-09-11T18:04:14.179Z,15.90
2017-09-11T18:07:15.523Z,15.80
2017-09-11T18:10:16.793Z,15.80
2017-09-11T18:13:19.253Z,16.00
2017-09-11T18:16:20.550Z,15.90
2017-09-11T18:19:22.643Z,15.90
2017-09-11T18:22:23.937Z,15.90
2017-09-11T18:25:25.356Z,15.90
2017-09-11T18:28:26.721Z,16.00
2017-09-11T18:31:28.550Z,16.00
2017-09-11T18:34:29.929Z,15.80
2017-09-11T18:37:31.271Z,15.80
2017-09-11T18:40:32.598Z,15.70
2017-09-11T18:43:33.945Z,15.80
2017-09-11T18:46:35.403Z,15.70
2017-09-11T18:49:36.775Z,15.70
2017-09-11T18:52:38.263Z,15.60
2017-09-11T18:55:39.601Z,15.50
2017-09-11T18:58:40.998Z,15.40
2017-09-11T19:01:42.329Z,15.50
2017-09-11T19:04:43.744Z,15.50
2017-09-11T19:07:45.067Z,15.50
2017-09-11T19:10:47.204Z,15.40
2017-09-11T19:13:48.849Z,15.50
2017-09-11T19:16:50.231Z,15.40
2017-09-11T19:19:52.773Z,15.30
2017-09-11T19:22:54.077Z,15.30
2017-09-11T19:25:56.145Z,15.40
2017-09-11T19:28:58.275Z,15.30
2017-09-11T19:32:00.449Z,15.40
2017-09-11T19:35:01.794Z,15.30
2017-09-11T19:38:03.105Z,15.40
2017-09-11T19:41:04.506Z,15.40
2017-09-11T19:44:05.993Z,15.30
2017-09-11T19:47:07.414Z,15.40
2017-09-11T19:50:08.708Z,15.30
2017-09-11T19:53:10.036Z,15.30
2017-09-11T19:56:12.023Z,15.20
2017-09-11T19:59:13.343Z,15.20
2017-09-11T20:02:15.394Z,15.20
2017-09-11T20:05:16.708Z,15.20
2017-09-11T20:08:17.963Z,15.20
2017-09-11T20:11:19.288Z,15.30
2017-09-11T20:14:20.610Z,15.30
2017-09-11T20:17:22.691Z,15.20
2017-09-11T20:20:24.012Z,15.10
2017-09-11T20:23:26.091Z,15.20
2017-09-11T20:26:28.260Z,15.20
2017-09-11T20:29:30.268Z,15.20
2017-09-11T20:32:31.919Z,15.20
2017-09-11T20:35:33.217Z,15.30
2017-09-11T20:38:34.607Z,15.30
2017-09-11T20:41:35.930Z,15.30
2017-09-11T20:44:37.979Z,15.30
2017-09-11T20:47:39.299Z,15.30
2017-09-11T20:50:47.511Z,15.30
2017-09-11T20:53:48.851Z,15.20
2017-09-11T20:56:50.234Z,15.30
2017-09-11T20:59:51.575Z,15.20
2017-09-11T21:02:52.951Z,15.20
2017-09-11T21:05:54.413Z,15.20
2017-09-11T21:08:56.514Z,15.20
2017-09-11T21:11:57.982Z,15.20
2017-09-11T21:14:59.344Z,15.20
2017-09-11T21:18:00.723Z,15.10
2017-09-11T21:21:02.077Z,15.10
2017-09-11T21:24:03.394Z,15.10
2017-09-11T21:27:04.736Z,15.10
2017-09-11T21:30:06.088Z,15.10
2017-09-11T21:33:07.370Z,15.00
2017-09-11T21:36:08.707Z,15.00
2017-09-11T21:39:10.046Z,14.90
2017-09-11T21:42:11.458Z,15.10
2017-09-11T21:45:12.764Z,15.00
2017-09-11T21:48:14.101Z,15.00
2017-09-11T21:51:15.363Z,15.10
2017-09-11T21:54:16.714Z,15.10
2017-09-11T21:57:17.997Z,15.00
2017-09-11T22:00:19.346Z,15.10
2017-09-11T22:03:20.919Z,15.10
2017-09-11T22:06:22.236Z,15.10
2017-09-11T22:09:24.370Z,15.20
2017-09-11T22:12:25.660Z,15.20
2017-09-11T22:15:27.730Z,15.10
2017-09-11T22:18:29.012Z,15.10
2017-09-11T22:21:30.357Z,15.10
2017-09-11T22:24:31.646Z,15.20
2017-09-11T22:27:32.972Z,15.20
2017-09-11T22:30:34.278Z,15.10
2017-09-11T22:33:35.627Z,15.20
2017-09-11T22:36:37.941Z,15.20
2017-09-11T22:39:39.253Z,15.20
2017-09-11T22:42:41.338Z,15.20
2017-09-11T22:45:42.662Z,15.20
2017-09-11T22:48:44.741Z,15.20
2017-09-11T22:51:46.813Z,15.20
2017-09-11T22:54:48.896Z,15.10
2017-09-11T22:57:50.167Z,15.10
2017-09-11T23:00:51.495Z,15.20
2017-09-11T23:03:52.828Z,15.20
2017-09-11T23:06:54.897Z,15.20
2017-09-11T23:09:56.903Z,15.20
2017-09-11T23:12:58.204Z,15.10
2017-09-11T23:16:00.242Z,15.10
2017-09-11T23:19:01.546Z,15.10
2017-09-11T23:22:02.814Z,15.10
2017-09-11T23:25:04.118Z,15.00
2017-09-11T23:28:06.282Z,15.10
2017-09-11T23:31:07.559Z,15.10
2017-09-11T23:34:08.835Z,15.10
2017-09-11T23:37:10.121Z,15.20
2017-09-11T23:40:11.542Z,15.10
2017-09-11T23:43:12.814Z,15.20
2017-09-11T23:46:14.106Z,15.20
2017-09-11T23:49:15.392Z,15.10
2017-09-11T23:52:16.730Z,15.10
2017-09-11T23:55:18.015Z,15.10
2017-09-11T23:58:19.296Z,15.10
